Time;durP1;ratioP1;P1;durP2;ratioP2;P2;SDS_P1;SDS_P2;PMS_P1;PMS_P2;Temp;Humidity;BMP_temperature;BMP_pressure;BME280_temperature;BME280_humidity;BME280_pressure;Samples;Min_cycle;Max_cycle;Signal;HPM_P1;HPM_P2
2023/05/21 00:01:17;;;;;;;7.50;6.30;;;;;;;;;;5094212;28;20024;-62
2023/05/21 00:03:44;;;;;;;7.45;6.05;;;;;;;;;;5093336;28;20039;-63
2023/05/21 00:06:12;;;;;;;6.82;6.20;;;;;;;;;;5093590;28;20044;-62
2023/05/21 00:08:38;;;;;;;6.88;6.18;;;;;;;;;;5093593;28;20051;-59
2023/05/21 00:11:04;;;;;;;8.02;6.30;;;;;;;;;;5093273;28;20040;-58
2023/05/21 00:13:29;;;;;;;6.90;6.30;;;;;;;;;;5093107;28;20043;-59
2023/05/21 00:15:55;;;;;;;7.80;6.18;;;;;;;;;;5093989;28;20036;-59
2023/05/21 00:18:21;;;;;;;6.68;6.18;;;;;;;;;;5094080;28;20046;-59
2023/05/21 00:20:46;;;;;;;6.68;6.05;;;;;;;;;;5093938;28;20384;-59
2023/05/21 00:23:12;;;;;;;11.48;5.95;;;;;;;;;;5094302;28;20395;-60
2023/05/21 00:25:38;;;;;;;7.05;6.45;;;;;;;;;;5095063;28;20028;-59
2023/05/21 00:28:03;;;;;;;6.60;6.03;;;;;;;;;;5093772;28;20042;-62
2023/05/21 00:30:29;;;;;;;8.75;6.13;;;;;;;;;;5075239;28;20020;-62
2023/05/21 00:32:57;;;;;;;6.65;6.07;;;;;;;;;;5093362;28;20126;-62
2023/05/21 00:35:23;;;;;;;7.93;5.57;;;;;;;;;;5093203;28;20028;-62
2023/05/21 00:37:48;;;;;;;6.53;5.93;;;;;;;;;;5075010;28;20482;-62
2023/05/21 00:40:14;;;;;;;7.07;5.75;;;;;;;;;;5075572;28;20383;-59
2023/05/21 00:42:40;;;;;;;6.47;5.82;;;;;;;;;;5075111;28;20036;-59
2023/05/21 00:45:06;;;;;;;6.95;6.25;;;;;;;;;;5093446;28;20054;-59
2023/05/21 00:47:32;;;;;;;6.72;6.10;;;;;;;;;;5075574;28;20045;-62
2023/05/21 00:49:58;;;;;;;7.75;5.43;;;;;;;;;;5093834;28;20031;-60
2023/05/21 00:52:25;;;;;;;8.10;5.70;;;;;;;;;;5093930;28;20761;-59
2023/05/21 00:54:51;;;;;;;6.72;6.07;;;;;;;;;;5092760;28;20036;-59
2023/05/21 00:57:19;;;;;;;6.65;5.85;;;;;;;;;;5074458;28;20039;-62
2023/05/21 00:59:46;;;;;;;6.78;5.90;;;;;;;;;;5093115;28;20039;-63
2023/05/21 01:02:13;;;;;;;8.43;6.00;;;;;;;;;;5093087;28;20039;-63
2023/05/21 01:04:38;;;;;;;6.80;6.13;;;;;;;;;;5074335;28;20066;-63
2023/05/21 01:07:05;;;;;;;7.20;5.90;;;;;;;;;;5074095;28;20052;-62
2023/05/21 01:09:30;;;;;;;7.28;5.78;;;;;;;;;;5092671;28;20044;-63
2023/05/21 01:11:56;;;;;;;6.70;6.10;;;;;;;;;;5092035;28;20048;-63
2023/05/21 01:14:22;;;;;;;6.50;5.90;;;;;;;;;;5092344;28;20036;-63
2023/05/21 01:16:49;;;;;;;6.20;5.70;;;;;;;;;;5074069;28;20036;-59
2023/05/21 01:19:15;;;;;;;7.07;5.82;;;;;;;;;;5093874;28;20047;-60
2023/05/21 01:21:44;;;;;;;6.50;5.90;;;;;;;;;;5076495;28;20028;-59
2023/05/21 01:24:09;;;;;;;6.72;5.93;;;;;;;;;;5076705;28;20028;-58
2023/05/21 01:26:37;;;;;;;8.90;5.65;;;;;;;;;;5094663;28;20043;-62
2023/05/21 01:29:06;;;;;;;7.22;6.40;;;;;;;;;;5075724;28;20028;-62
2023/05/21 01:31:47;;;;;;;6.65;5.90;;;;;;;;;;5093587;28;20483;-59
2023/05/21 01:34:13;;;;;;;6.60;5.97;;;;;;;;;;5075173;28;20024;-59
2023/05/21 01:36:42;;;;;;;6.90;6.18;;;;;;;;;;5092329;28;20095;-60
2023/05/21 01:39:37;;;;;;;6.32;5.78;;;;;;;;;;5073646;28;20028;-60
2023/05/21 01:42:04;;;;;;;6.45;5.75;;;;;;;;;;5074124;28;20073;-60
2023/05/21 01:44:31;;;;;;;6.55;5.88;;;;;;;;;;5092132;28;20035;-60
2023/05/21 01:46:57;;;;;;;6.15;5.72;;;;;;;;;;5073880;28;20387;-61
2023/05/21 01:49:23;;;;;;;6.50;5.90;;;;;;;;;;5092462;28;20039;-61
2023/05/21 01:51:48;;;;;;;6.78;6.18;;;;;;;;;;5073804;28;20023;-61
2023/05/21 01:54:14;;;;;;;7.72;6.18;;;;;;;;;;5092394;28;20142;-62
2023/05/21 01:56:40;;;;;;;7.68;6.43;;;;;;;;;;5093977;28;20491;-59
2023/05/21 01:59:07;;;;;;;12.23;6.00;;;;;;;;;;5074135;28;20122;-62
2023/05/21 02:01:33;;;;;;;7.28;5.65;;;;;;;;;;5092216;28;20047;-63
2023/05/21 02:03:59;;;;;;;6.15;5.57;;;;;;;;;;5091582;28;20399;-61
2023/05/21 02:06:24;;;;;;;6.40;5.72;;;;;;;;;;5073227;28;20028;-61
2023/05/21 02:08:50;;;;;;;6.03;5.50;;;;;;;;;;5073655;28;20043;-61
2023/05/21 02:11:16;;;;;;;6.78;6.00;;;;;;;;;;5091813;28;20035;-60
2023/05/21 02:13:41;;;;;;;6.68;5.43;;;;;;;;;;5091083;28;20040;-61
2023/05/21 02:16:10;;;;;;;8.38;6.00;;;;;;;;;;5091713;28;20476;-61
2023/05/21 02:18:36;;;;;;;6.20;5.75;;;;;;;;;;5107434;28;20036;-60
2023/05/21 02:21:01;;;;;;;6.40;5.80;;;;;;;;;;5091426;28;20066;-60
2023/05/21 02:23:27;;;;;;;6.40;5.55;;;;;;;;;;5090525;28;20037;-60
2023/05/21 02:25:52;;;;;;;5.88;5.30;;;;;;;;;;5091233;28;20043;-60
2023/05/21 02:28:18;;;;;;;6.20;5.60;;;;;;;;;;5091628;28;20047;-62
2023/05/21 02:30:45;;;;;;;7.72;5.50;;;;;;;;;;5073244;28;20495;-61
2023/05/21 02:33:13;;;;;;;6.47;5.90;;;;;;;;;;5091520;28;20107;-60
2023/05/21 02:35:38;;;;;;;7.28;5.53;;;;;;;;;;5091633;28;20772;-61
2023/05/21 02:38:03;;;;;;;6.70;5.55;;;;;;;;;;5073095;28;20034;-60
2023/05/21 02:40:29;;;;;;;6.18;5.68;;;;;;;;;;5091377;28;20465;-61
2023/05/21 02:42:54;;;;;;;5.82;5.43;;;;;;;;;;5106619;28;20020;-62
2023/05/21 02:45:20;;;;;;;5.55;5.15;;;;;;;;;;5073005;28;20491;-63
2023/05/21 02:47:45;;;;;;;7.78;5.57;;;;;;;;;;5072774;28;20040;-63
2023/05/21 02:50:12;;;;;;;5.50;5.00;;;;;;;;;;5089699;28;20081;-62
2023/05/21 02:52:43;;;;;;;5.65;4.88;;;;;;;;;;5072457;28;20119;-63
2023/05/21 02:55:09;;;;;;;5.72;5.22;;;;;;;;;;5072759;28;20126;-63
2023/05/21 02:57:34;;;;;;;7.45;5.20;;;;;;;;;;5090974;28;20386;-63
2023/05/21 03:00:00;;;;;;;6.60;5.20;;;;;;;;;;5072674;28;20028;-63
2023/05/21 03:02:25;;;;;;;6.80;4.95;;;;;;;;;;5072234;28;20051;-63
2023/05/21 03:04:50;;;;;;;6.22;5.72;;;;;;;;;;5072714;28;20482;-63
2023/05/21 03:07:19;;;;;;;7.00;4.97;;;;;;;;;;5090588;28;20046;-60
2023/05/21 03:09:45;;;;;;;8.70;5.60;;;;;;;;;;5072868;28;20109;-60
2023/05/21 03:12:11;;;;;;;5.50;5.00;;;;;;;;;;5072417;28;20075;-58
2023/05/21 03:14:36;;;;;;;6.55;5.10;;;;;;;;;;5090609;28;20067;-62
2023/05/21 03:17:04;;;;;;;6.53;5.18;;;;;;;;;;5089671;28;20038;-62
2023/05/21 03:19:33;;;;;;;6.45;4.82;;;;;;;;;;5090028;28;20024;-62
2023/05/21 03:22:00;;;;;;;6.32;5.30;;;;;;;;;;5072116;28;20131;-62
2023/05/21 03:24:26;;;;;;;5.55;5.15;;;;;;;;;;5072611;28;20107;-62
2023/05/21 03:26:53;;;;;;;7.28;4.90;;;;;;;;;;5072894;28;20081;-62
2023/05/21 03:29:18;;;;;;;5.57;5.00;;;;;;;;;;5073058;28;20035;-61
2023/05/21 03:31:56;;;;;;;5.60;5.20;;;;;;;;;;5073577;28;20055;-62
2023/05/21 03:34:22;;;;;;;6.43;4.78;;;;;;;;;;5074158;28;20031;-62
2023/05/21 03:36:48;;;;;;;6.38;4.45;;;;;;;;;;5072425;28;20028;-62
2023/05/21 03:39:16;;;;;;;7.68;4.70;;;;;;;;;;5072159;28;20035;-62
2023/05/21 03:41:42;;;;;;;5.35;4.82;;;;;;;;;;5072858;28;20032;-63
2023/05/21 03:44:11;;;;;;;4.95;4.53;;;;;;;;;;5056749;28;20028;-63
2023/05/21 03:47:10;;;;;;;5.85;4.72;;;;;;;;;;4991015;28;20037;-61
2023/05/21 03:49:36;;;;;;;4.88;4.47;;;;;;;;;;5002532;28;20035;-61
2023/05/21 03:52:02;;;;;;;6.53;4.43;;;;;;;;;;5072626;28;20471;-61
2023/05/21 03:54:30;;;;;;;4.93;4.53;;;;;;;;;;5072842;28;20078;-62
2023/05/21 03:57:01;;;;;;;5.00;4.43;;;;;;;;;;5072126;28;20040;-63
2023/05/21 03:59:28;;;;;;;5.32;4.60;;;;;;;;;;5073129;28;20063;-63
2023/05/21 04:01:54;;;;;;;6.68;4.50;;;;;;;;;;5072638;28;20399;-63
2023/05/21 04:04:20;;;;;;;7.43;4.30;;;;;;;;;;5072330;28;20039;-63
2023/05/21 04:06:45;;;;;;;11.80;4.68;;;;;;;;;;5089776;28;20586;-63
2023/05/21 04:09:11;;;;;;;4.82;4.43;;;;;;;;;;5071335;28;20483;-60
2023/05/21 04:11:37;;;;;;;6.88;4.40;;;;;;;;;;5055427;28;20032;-61
2023/05/21 04:14:02;;;;;;;4.30;4.00;;;;;;;;;;5072613;28;20090;-61
2023/05/21 04:16:28;;;;;;;5.18;4.32;;;;;;;;;;5072787;28;20536;-60
2023/05/21 04:18:54;;;;;;;5.00;3.97;;;;;;;;;;5072321;28;20471;-62
2023/05/21 04:21:20;;;;;;;6.55;4.82;;;;;;;;;;5072476;28;20028;-63
2023/05/21 04:23:46;;;;;;;4.45;4.05;;;;;;;;;;5055426;28;20035;-63
2023/05/21 04:26:21;;;;;;;4.90;4.00;;;;;;;;;;5071705;28;20429;-63
2023/05/21 04:28:47;;;;;;;4.70;4.30;;;;;;;;;;5108289;28;20115;-62
2023/05/21 04:31:12;;;;;;;4.93;4.20;;;;;;;;;;5093878;28;20024;-62
2023/05/21 04:33:40;;;;;;;7.60;4.13;;;;;;;;;;5075456;28;20078;-61
2023/05/21 04:36:09;;;;;;;4.38;3.97;;;;;;;;;;5093593;28;20028;-61
2023/05/21 04:38:35;;;;;;;4.15;3.85;;;;;;;;;;5074768;28;20579;-61
2023/05/21 04:41:03;;;;;;;4.00;3.70;;;;;;;;;;5058800;28;20032;-61
2023/05/21 04:43:28;;;;;;;4.25;3.80;;;;;;;;;;5093194;28;20043;-61
2023/05/21 04:45:56;;;;;;;5.95;3.95;;;;;;;;;;5075286;28;20024;-61
2023/05/21 04:48:23;;;;;;;13.25;8.15;;;;;;;;;;5075477;28;20554;-61
2023/05/21 04:50:50;;;;;;;8.27;5.82;;;;;;;;;;5074915;28;20051;-60
2023/05/21 04:53:16;;;;;;;5.55;4.45;;;;;;;;;;5076017;28;20036;-62
2023/05/21 04:55:41;;;;;;;4.53;4.13;;;;;;;;;;5076505;28;20040;-63
2023/05/21 04:58:09;;;;;;;5.53;3.92;;;;;;;;;;5074717;28;20036;-63
2023/05/21 05:00:36;;;;;;;5.55;4.07;;;;;;;;;;5074931;28;20055;-63
2023/05/21 05:03:02;;;;;;;4.25;3.85;;;;;;;;;;5073512;28;20032;-63
2023/05/21 05:05:27;;;;;;;4.95;3.70;;;;;;;;;;5074726;28;20054;-63
2023/05/21 05:07:53;;;;;;;3.85;3.60;;;;;;;;;;5074140;28;20088;-63
2023/05/21 05:10:19;;;;;;;5.82;3.47;;;;;;;;;;5092361;28;20108;-63
2023/05/21 05:12:44;;;;;;;4.50;4.00;;;;;;;;;;5091022;28;20052;-63
2023/05/21 05:15:10;;;;;;;5.75;4.20;;;;;;;;;;5073085;28;20488;-63
2023/05/21 05:17:36;;;;;;;4.25;3.80;;;;;;;;;;5072989;28;20028;-63
2023/05/21 05:20:01;;;;;;;3.83;3.53;;;;;;;;;;5073164;28;20028;-63
2023/05/21 05:22:27;;;;;;;3.97;3.70;;;;;;;;;;5072758;28;20134;-63
2023/05/21 05:24:52;;;;;;;5.03;3.78;;;;;;;;;;5073786;28;20471;-63
2023/05/21 05:27:18;;;;;;;3.83;3.47;;;;;;;;;;5073743;28;20438;-63
2023/05/21 05:29:44;;;;;;;5.88;3.80;;;;;;;;;;5072243;28;20067;-63
2023/05/21 05:32:09;;;;;;;4.68;3.67;;;;;;;;;;5072797;28;20190;-63
2023/05/21 05:34:34;;;;;;;5.50;4.03;;;;;;;;;;5091304;28;20032;-63
2023/05/21 05:37:01;;;;;;;7.07;3.90;;;;;;;;;;5073028;28;20036;-62
2023/05/21 05:39:27;;;;;;;5.43;3.65;;;;;;;;;;5071977;28;20567;-63
2023/05/21 05:41:53;;;;;;;4.18;3.75;;;;;;;;;;5072151;28;20031;-62
2023/05/21 05:44:19;;;;;;;6.47;3.75;;;;;;;;;;5073550;28;20055;-61
2023/05/21 05:46:45;;;;;;;4.63;3.47;;;;;;;;;;5091811;28;20089;-61
2023/05/21 05:49:10;;;;;;;7.03;3.85;;;;;;;;;;5091853;28;20040;-62
2023/05/21 05:51:36;;;;;;;4.95;3.58;;;;;;;;;;5074133;28;20101;-61
2023/05/21 05:54:01;;;;;;;4.93;3.40;;;;;;;;;;5057703;28;20134;-62
2023/05/21 05:56:26;;;;;;;7.90;3.92;;;;;;;;;;5075819;28;20032;-66
2023/05/21 05:58:58;;;;;;;6.05;3.75;;;;;;;;;;5075615;28;20028;-62
2023/05/21 06:01:25;;;;;;;4.35;3.95;;;;;;;;;;5073537;28;20055;-61
2023/05/21 06:03:51;;;;;;;3.65;3.13;;;;;;;;;;5090064;28;20055;-61
2023/05/21 06:06:17;;;;;;;5.45;3.88;;;;;;;;;;5073126;28;20039;-61
2023/05/21 06:08:43;;;;;;;4.15;3.22;;;;;;;;;;5073473;28;20024;-61
2023/05/21 06:11:08;;;;;;;3.60;3.40;;;;;;;;;;5093186;28;20020;-64
2023/05/21 06:13:34;;;;;;;6.70;3.63;;;;;;;;;;5092863;28;20051;-61
2023/05/21 06:15:59;;;;;;;5.93;3.22;;;;;;;;;;5057238;28;20504;-63
2023/05/21 06:18:25;;;;;;;4.32;3.60;;;;;;;;;;5072433;28;20472;-63
2023/05/21 06:20:50;;;;;;;3.85;3.35;;;;;;;;;;5056244;28;20495;-64
2023/05/21 06:23:17;;;;;;;3.30;3.00;;;;;;;;;;5072529;28;20052;-64
2023/05/21 06:25:44;;;;;;;3.67;3.28;;;;;;;;;;5073224;28;20032;-63
2023/05/21 06:28:09;;;;;;;5.22;3.38;;;;;;;;;;5091865;28;20040;-63
2023/05/21 06:30:35;;;;;;;5.30;4.00;;;;;;;;;;5072919;28;20035;-63
2023/05/21 06:33:00;;;;;;;4.40;3.35;;;;;;;;;;5072798;28;20097;-62
2023/05/21 06:35:26;;;;;;;4.18;3.80;;;;;;;;;;5072260;28;20036;-63
2023/05/21 06:37:51;;;;;;;4.80;3.30;;;;;;;;;;5106648;28;20072;-64
2023/05/21 06:40:16;;;;;;;3.60;3.30;;;;;;;;;;5072982;28;20614;-61
2023/05/21 06:42:42;;;;;;;7.50;3.80;;;;;;;;;;5072446;28;20043;-61
2023/05/21 06:45:27;;;;;;;8.15;3.80;;;;;;;;;;5090289;28;20036;-61
2023/05/21 06:47:57;;;;;;;4.70;3.28;;;;;;;;;;5072555;28;20111;-61
2023/05/21 06:50:23;;;;;;;6.10;3.10;;;;;;;;;;5089886;28;20110;-61
2023/05/21 06:52:48;;;;;;;5.07;3.22;;;;;;;;;;5071212;28;20034;-60
2023/05/21 06:55:14;;;;;;;4.18;3.78;;;;;;;;;;5072189;28;20028;-61
2023/05/21 06:57:59;;;;;;;5.50;3.22;;;;;;;;;;5089820;28;20047;-61
2023/05/21 07:00:25;;;;;;;4.13;3.30;;;;;;;;;;5072088;28;20387;-61
2023/05/21 07:02:50;;;;;;;3.63;3.15;;;;;;;;;;5071540;28;20040;-61
2023/05/21 07:05:16;;;;;;;4.22;3.78;;;;;;;;;;5055149;28;20024;-61
2023/05/21 07:07:41;;;;;;;3.65;3.35;;;;;;;;;;5071117;28;20443;-61
2023/05/21 07:10:07;;;;;;;3.70;3.40;;;;;;;;;;5072236;28;20024;-62
2023/05/21 07:12:32;;;;;;;5.22;3.03;;;;;;;;;;5069143;28;20048;-64
2023/05/21 07:14:58;;;;;;;4.47;3.58;;;;;;;;;;5073172;28;20028;-64
2023/05/21 07:17:24;;;;;;;3.35;3.10;;;;;;;;;;5072772;28;20463;-64
2023/05/21 07:19:49;;;;;;;5.70;3.17;;;;;;;;;;5072906;28;20031;-64
2023/05/21 07:22:15;;;;;;;4.43;3.60;;;;;;;;;;5072556;28;20074;-64
2023/05/21 07:24:40;;;;;;;5.38;3.03;;;;;;;;;;5072848;28;20036;-64
2023/05/21 07:27:06;;;;;;;6.65;3.30;;;;;;;;;;5091276;28;20023;-64
2023/05/21 07:29:34;;;;;;;4.65;3.00;;;;;;;;;;5073043;28;20059;-64
2023/05/21 07:32:00;;;;;;;6.30;3.17;;;;;;;;;;5091002;28;20024;-64
2023/05/21 07:34:25;;;;;;;3.20;2.92;;;;;;;;;;5072924;28;20028;-64
2023/05/21 07:36:51;;;;;;;2.92;2.70;;;;;;;;;;5072466;28;20510;-64
2023/05/21 07:39:17;;;;;;;3.90;3.40;;;;;;;;;;5072100;28;20028;-64
2023/05/21 07:41:42;;;;;;;6.00;3.33;;;;;;;;;;5072363;28;20027;-62
2023/05/21 07:44:08;;;;;;;3.33;3.03;;;;;;;;;;5071451;28;20453;-62
2023/05/21 07:46:37;;;;;;;4.63;3.08;;;;;;;;;;5071478;28;20055;-61
2023/05/21 07:49:05;;;;;;;4.90;2.95;;;;;;;;;;5072685;28;20047;-61
2023/05/21 07:51:31;;;;;;;4.03;3.03;;;;;;;;;;5072260;28;20035;-61
2023/05/21 07:53:56;;;;;;;4.63;3.22;;;;;;;;;;5071444;28;20024;-61
2023/05/21 07:56:28;;;;;;;6.43;3.28;;;;;;;;;;5072026;28;20097;-61
2023/05/21 07:58:56;;;;;;;4.35;3.10;;;;;;;;;;5071749;28;20552;-61
2023/05/21 08:01:22;;;;;;;4.15;2.90;;;;;;;;;;5085382;28;20033;-62
2023/05/21 08:03:48;;;;;;;3.63;3.33;;;;;;;;;;5055077;28;20029;-61
2023/05/21 08:06:13;;;;;;;5.57;2.95;;;;;;;;;;5055876;28;20017;-61
2023/05/21 08:08:39;;;;;;;3.63;2.75;;;;;;;;;;5059179;28;20364;-61
2023/05/21 08:11:05;;;;;;;6.43;2.70;;;;;;;;;;5075221;28;20028;-62
2023/05/21 08:13:31;;;;;;;2.85;2.65;;;;;;;;;;5074902;28;20142;-61
2023/05/21 08:15:57;;;;;;;4.05;2.75;;;;;;;;;;5075869;28;20107;-61
2023/05/21 08:18:22;;;;;;;3.72;2.78;;;;;;;;;;5092446;28;20031;-61
2023/05/21 08:20:49;;;;;;;4.63;3.05;;;;;;;;;;5075921;28;20039;-61
2023/05/21 08:23:16;;;;;;;4.00;2.97;;;;;;;;;;5075819;28;20105;-61
2023/05/21 08:25:47;;;;;;;3.65;2.50;;;;;;;;;;5075867;28;20115;-61
2023/05/21 08:28:13;;;;;;;3.72;3.05;;;;;;;;;;5074989;28;20130;-61
2023/05/21 08:30:40;;;;;;;2.72;2.53;;;;;;;;;;5092146;28;20024;-60
2023/05/21 08:33:05;;;;;;;3.97;3.05;;;;;;;;;;5075536;28;20115;-61
2023/05/21 08:35:32;;;;;;;3.42;2.78;;;;;;;;;;5076867;28;20367;-61
2023/05/21 08:38:08;;;;;;;2.88;2.67;;;;;;;;;;5076941;28;20384;-61
2023/05/21 08:40:40;;;;;;;4.80;3.00;;;;;;;;;;5076638;28;20747;-61
2023/05/21 08:43:06;;;;;;;2.72;2.50;;;;;;;;;;5075855;28;20055;-61
2023/05/21 08:45:41;;;;;;;7.03;3.03;;;;;;;;;;5076045;28;20039;-61
2023/05/21 08:48:09;;;;;;;3.33;2.78;;;;;;;;;;5076122;28;20043;-61
2023/05/21 08:50:36;;;;;;;7.70;2.65;;;;;;;;;;5076582;28;20430;-60
2023/05/21 08:53:08;;;;;;;4.05;2.70;;;;;;;;;;5059303;28;20032;-61
2023/05/21 08:55:35;;;;;;;6.15;2.90;;;;;;;;;;5058687;28;20111;-60
2023/05/21 08:58:01;;;;;;;4.78;2.42;;;;;;;;;;5075010;28;20141;-61
2023/05/21 09:00:27;;;;;;;2.55;2.22;;;;;;;;;;5075361;28;20068;-61
2023/05/21 09:02:55;;;;;;;2.22;2.13;;;;;;;;;;5074623;28;20059;-61
2023/05/21 09:05:22;;;;;;;2.30;2.20;;;;;;;;;;5091682;28;20111;-61
2023/05/21 09:07:59;;;;;;;4.65;2.53;;;;;;;;;;5074915;28;20111;-61
2023/05/21 09:10:51;;;;;;;2.83;2.45;;;;;;;;;;5087891;28;20039;-61
2023/05/21 09:13:19;;;;;;;3.55;2.50;;;;;;;;;;5106648;28;20040;-63
2023/05/21 09:15:46;;;;;;;3.55;2.25;;;;;;;;;;5074037;28;20063;-63
2023/05/21 09:18:13;;;;;;;3.38;2.47;;;;;;;;;;5074353;28;20104;-64
2023/05/21 09:21:34;;;;;;;2.55;2.35;;;;;;;;;;5091252;28;20051;-63
2023/05/21 09:24:09;;;;;;;3.35;2.80;;;;;;;;;;5062612;28;20108;-64
2023/05/21 09:26:35;;;;;;;3.28;2.50;;;;;;;;;;5058298;28;20073;-63
2023/05/21 09:29:03;;;;;;;4.57;2.70;;;;;;;;;;5058374;28;20089;-63
2023/05/21 09:31:31;;;;;;;2.53;2.33;;;;;;;;;;5074261;28;20491;-63
2023/05/21 09:33:56;;;;;;;5.80;2.50;;;;;;;;;;5074308;28;20434;-63
2023/05/21 09:36:23;;;;;;;3.00;2.33;;;;;;;;;;5074570;28;20031;-64
2023/05/21 09:38:50;;;;;;;3.55;2.10;;;;;;;;;;5074109;28;20023;-63
2023/05/21 09:41:16;;;;;;;3.83;2.00;;;;;;;;;;5088074;28;20139;-63
2023/05/21 09:43:45;;;;;;;2.83;2.38;;;;;;;;;;5054215;28;20514;-63
2023/05/21 09:46:11;;;;;;;2.30;2.13;;;;;;;;;;5054594;28;20082;-63
2023/05/21 09:48:39;;;;;;;5.30;2.50;;;;;;;;;;5077146;28;20019;-63
2023/05/21 09:51:09;;;;;;;2.38;2.17;;;;;;;;;;5073549;28;20024;-63
2023/05/21 09:53:35;;;;;;;4.82;2.60;;;;;;;;;;5073673;28;20191;-63
2023/05/21 09:56:02;;;;;;;2.60;2.08;;;;;;;;;;5058368;28;20670;-63
2023/05/21 09:58:27;;;;;;;2.67;2.22;;;;;;;;;;5092227;28;20032;-62
2023/05/21 10:00:53;;;;;;;2.97;2.78;;;;;;;;;;5092289;28;20046;-63
2023/05/21 10:03:22;;;;;;;4.50;2.70;;;;;;;;;;5092028;28;20024;-63
2023/05/21 10:05:48;;;;;;;4.65;2.25;;;;;;;;;;5092200;28;20119;-63
2023/05/21 10:08:15;;;;;;;2.70;2.50;;;;;;;;;;5073808;28;20074;-63
2023/05/21 10:10:41;;;;;;;3.72;2.30;;;;;;;;;;5092122;28;20067;-63
2023/05/21 10:13:11;;;;;;;2.35;2.15;;;;;;;;;;5091700;28;20044;-63
2023/05/21 10:15:37;;;;;;;4.95;2.33;;;;;;;;;;5091909;28;20032;-61
2023/05/21 10:18:03;;;;;;;3.80;2.50;;;;;;;;;;5091808;28;20043;-61
2023/05/21 10:20:29;;;;;;;4.13;2.50;;;;;;;;;;5091943;28;20054;-60
2023/05/21 10:22:54;;;;;;;3.63;2.60;;;;;;;;;;5091866;28;20036;-63
2023/05/21 10:25:24;;;;;;;3.60;2.65;;;;;;;;;;5091840;28;20032;-63
2023/05/21 10:27:50;;;;;;;3.28;2.47;;;;;;;;;;5092251;28;20032;-63
2023/05/21 10:30:16;;;;;;;5.00;2.72;;;;;;;;;;5092164;28;20024;-63
2023/05/21 10:32:42;;;;;;;5.20;2.70;;;;;;;;;;5072379;28;20168;-63
2023/05/21 10:35:08;;;;;;;3.92;2.65;;;;;;;;;;5090858;28;20119;-63
2023/05/21 10:37:33;;;;;;;4.88;2.63;;;;;;;;;;5091142;28;20141;-63
2023/05/21 10:40:00;;;;;;;3.97;3.00;;;;;;;;;;5091387;28;20063;-63
2023/05/21 10:42:28;;;;;;;5.38;2.60;;;;;;;;;;5090354;28;20118;-62
2023/05/21 10:45:13;;;;;;;3.60;2.58;;;;;;;;;;5091393;28;20036;-63
2023/05/21 10:47:46;;;;;;;5.80;2.50;;;;;;;;;;5076818;28;20781;-63
2023/05/21 10:50:11;;;;;;;4.30;2.47;;;;;;;;;;5091001;28;20086;-63
2023/05/21 10:52:51;;;;;;;2.95;2.75;;;;;;;;;;5090849;28;20043;-63
2023/05/21 10:55:22;;;;;;;4.10;2.60;;;;;;;;;;5073216;28;20430;-63
2023/05/21 10:57:59;;;;;;;4.88;2.40;;;;;;;;;;5073312;28;20040;-63
2023/05/21 11:00:25;;;;;;;2.50;2.30;;;;;;;;;;5072749;28;20036;-63
2023/05/21 11:02:55;;;;;;;2.97;2.45;;;;;;;;;;5073535;28;20235;-63
2023/05/21 11:05:53;;;;;;;3.22;2.85;;;;;;;;;;5074034;28;20040;-63
2023/05/21 11:08:26;;;;;;;3.30;3.00;;;;;;;;;;5029379;28;20036;-63
2023/05/21 11:10:52;;;;;;;4.03;2.70;;;;;;;;;;5090752;28;20036;-63
2023/05/21 11:13:20;;;;;;;2.90;2.70;;;;;;;;;;5072507;28;20056;-63
2023/05/21 11:15:58;;;;;;;3.78;2.95;;;;;;;;;;5091000;28;20592;-63
2023/05/21 11:18:32;;;;;;;3.63;2.63;;;;;;;;;;5074572;28;20475;-63
2023/05/21 11:21:10;;;;;;;3.88;3.08;;;;;;;;;;5073300;28;20043;-63
2023/05/21 11:23:57;;;;;;;3.60;2.70;;;;;;;;;;5071981;28;20075;-62
2023/05/21 11:26:24;;;;;;;3.45;2.60;;;;;;;;;;5071607;28;20059;-63
2023/05/21 11:29:05;;;;;;;5.72;2.95;;;;;;;;;;5070070;28;20427;-63
2023/05/21 11:31:37;;;;;;;3.28;2.97;;;;;;;;;;5074796;28;20048;-63
2023/05/21 11:34:27;;;;;;;6.28;2.50;;;;;;;;;;5072398;28;20024;-63
2023/05/21 11:37:11;;;;;;;3.00;2.80;;;;;;;;;;5091531;28;20060;-61
2023/05/21 11:39:40;;;;;;;2.55;2.35;;;;;;;;;;5094982;28;20089;-60
2023/05/21 11:42:05;;;;;;;3.20;2.90;;;;;;;;;;5094491;28;20024;-60
2023/05/21 11:44:47;;;;;;;3.05;2.72;;;;;;;;;;5095230;28;20039;-60
2023/05/21 11:47:20;;;;;;;2.95;2.40;;;;;;;;;;5076640;28;20035;-60
2023/05/21 11:49:45;;;;;;;3.13;2.83;;;;;;;;;;5094637;28;20027;-61
2023/05/21 11:52:12;;;;;;;4.68;2.80;;;;;;;;;;5093784;28;20028;-61
2023/05/21 11:54:42;;;;;;;3.00;2.80;;;;;;;;;;5077110;28;20028;-61
2023/05/21 11:57:08;;;;;;;5.43;3.35;;;;;;;;;;5076457;28;20013;-60
2023/05/21 11:59:34;;;;;;;5.65;2.53;;;;;;;;;;5075805;28;20036;-61
2023/05/21 12:02:00;;;;;;;3.00;2.78;;;;;;;;;;5075177;28;20020;-60
2023/05/21 12:04:29;;;;;;;4.78;2.90;;;;;;;;;;5093614;28;20030;-60
2023/05/21 12:06:57;;;;;;;3.95;2.85;;;;;;;;;;5076131;28;20043;-60
2023/05/21 12:09:22;;;;;;;3.95;2.60;;;;;;;;;;5093554;28;20073;-61
2023/05/21 12:11:49;;;;;;;6.78;3.15;;;;;;;;;;5058885;28;20036;-60
2023/05/21 12:14:15;;;;;;;3.28;3.03;;;;;;;;;;5093348;28;20055;-60
2023/05/21 12:16:40;;;;;;;3.08;2.70;;;;;;;;;;5075379;28;20031;-60
2023/05/21 12:19:06;;;;;;;3.00;2.70;;;;;;;;;;5094202;28;20027;-61
2023/05/21 12:21:32;;;;;;;5.60;2.67;;;;;;;;;;5093942;28;20032;-61
2023/05/21 12:23:57;;;;;;;3.13;2.83;;;;;;;;;;5091166;28;20020;-61
2023/05/21 12:26:24;;;;;;;4.53;2.40;;;;;;;;;;5095005;28;20028;-61
2023/05/21 12:28:51;;;;;;;5.25;2.70;;;;;;;;;;5094875;28;20039;-60
2023/05/21 12:31:16;;;;;;;4.25;2.78;;;;;;;;;;5094045;28;20422;-61
2023/05/21 12:33:47;;;;;;;4.80;2.72;;;;;;;;;;5093554;28;20036;-61
2023/05/21 12:36:29;;;;;;;3.58;2.50;;;;;;;;;;5075439;28;20105;-61
2023/05/21 12:38:56;;;;;;;5.00;2.75;;;;;;;;;;5093973;28;20047;-61
2023/05/21 12:41:21;;;;;;;5.75;2.95;;;;;;;;;;5093678;28;20046;-61
2023/05/21 12:43:47;;;;;;;4.05;3.30;;;;;;;;;;5088821;28;20269;-61
2023/05/21 12:46:16;;;;;;;3.88;2.65;;;;;;;;;;5072856;28;20032;-61
2023/05/21 12:48:56;;;;;;;3.33;3.03;;;;;;;;;;5071947;28;20107;-61
2023/05/21 12:51:22;;;;;;;2.83;2.60;;;;;;;;;;5072545;28;20094;-61
2023/05/21 12:53:47;;;;;;;4.40;2.45;;;;;;;;;;5092723;28;20028;-61
2023/05/21 12:56:13;;;;;;;4.95;3.28;;;;;;;;;;5093296;28;20051;-61
2023/05/21 12:58:39;;;;;;;4.05;2.92;;;;;;;;;;5075450;28;20036;-61
2023/05/21 13:01:05;;;;;;;4.30;2.70;;;;;;;;;;5074591;28;20035;-60
2023/05/21 13:03:31;;;;;;;3.70;3.00;;;;;;;;;;5093120;28;20409;-61
2023/05/21 13:06:00;;;;;;;3.67;2.97;;;;;;;;;;5074472;28;20085;-61
2023/05/21 13:08:25;;;;;;;3.60;3.10;;;;;;;;;;5075265;28;20119;-61
2023/05/21 13:10:51;;;;;;;3.00;2.75;;;;;;;;;;5093356;28;20111;-61
2023/05/21 13:13:16;;;;;;;3.20;2.92;;;;;;;;;;5093074;28;20047;-61
2023/05/21 13:15:41;;;;;;;3.65;3.33;;;;;;;;;;5093241;28;20548;-61
2023/05/21 13:18:07;;;;;;;3.53;2.90;;;;;;;;;;5093245;28;20039;-61
2023/05/21 13:20:32;;;;;;;3.67;3.13;;;;;;;;;;5091922;28;20099;-61
2023/05/21 13:22:58;;;;;;;4.35;2.85;;;;;;;;;;5074385;28;20028;-60
2023/05/21 13:25:26;;;;;;;3.63;2.90;;;;;;;;;;5092940;28;20020;-61
2023/05/21 13:27:52;;;;;;;2.97;2.70;;;;;;;;;;5075644;28;20039;-60
2023/05/21 13:30:18;;;;;;;7.05;3.17;;;;;;;;;;5093551;28;20012;-61
2023/05/21 13:32:43;;;;;;;4.78;2.95;;;;;;;;;;5093350;28;20053;-61
2023/05/21 13:35:09;;;;;;;3.22;2.85;;;;;;;;;;5093198;28;20107;-61
2023/05/21 13:37:37;;;;;;;3.97;2.85;;;;;;;;;;5075392;28;20040;-61
2023/05/21 13:40:06;;;;;;;4.47;2.80;;;;;;;;;;5093117;28;20482;-60
2023/05/21 13:42:32;;;;;;;3.08;2.80;;;;;;;;;;5075307;28;20036;-60
2023/05/21 13:44:57;;;;;;;8.27;3.85;;;;;;;;;;5093691;28;20024;-61
2023/05/21 13:47:22;;;;;;;6.47;3.63;;;;;;;;;;5093848;28;20040;-61
2023/05/21 13:49:48;;;;;;;4.28;3.25;;;;;;;;;;5074514;28;20024;-61
2023/05/21 13:52:13;;;;;;;6.90;3.45;;;;;;;;;;5092280;28;20486;-60
2023/05/21 13:54:39;;;;;;;3.85;3.40;;;;;;;;;;5091809;28;20032;-61
2023/05/21 13:57:04;;;;;;;3.38;2.58;;;;;;;;;;5074108;28;20030;-61
2023/05/21 13:59:30;;;;;;;6.85;3.20;;;;;;;;;;5073254;28;20328;-60
2023/05/21 14:01:56;;;;;;;3.40;3.20;;;;;;;;;;5091435;28;20040;-61
2023/05/21 14:04:22;;;;;;;3.53;3.20;;;;;;;;;;5091561;28;20107;-61
2023/05/21 14:06:47;;;;;;;5.03;3.35;;;;;;;;;;5072766;28;20448;-61
2023/05/21 14:09:13;;;;;;;6.75;2.92;;;;;;;;;;5056475;28;20028;-61
2023/05/21 14:11:38;;;;;;;3.42;2.80;;;;;;;;;;5090541;28;20028;-61
2023/05/21 14:14:03;;;;;;;4.85;3.15;;;;;;;;;;5071044;28;20135;-61
2023/05/21 14:16:29;;;;;;;5.15;3.00;;;;;;;;;;5090099;28;20646;-60
2023/05/21 14:18:55;;;;;;;3.30;3.00;;;;;;;;;;5090507;28;20433;-61
2023/05/21 14:21:20;;;;;;;5.38;3.20;;;;;;;;;;5090104;28;20031;-60
2023/05/21 14:23:46;;;;;;;3.55;3.10;;;;;;;;;;5090107;28;20387;-60
2023/05/21 14:26:11;;;;;;;4.97;2.85;;;;;;;;;;5071695;28;20040;-61
2023/05/21 14:28:37;;;;;;;4.05;2.80;;;;;;;;;;5090721;28;20069;-60
2023/05/21 14:31:02;;;;;;;4.40;2.92;;;;;;;;;;5072638;28;20024;-61
2023/05/21 14:33:30;;;;;;;6.10;2.80;;;;;;;;;;5091242;28;20034;-61
2023/05/21 14:35:55;;;;;;;2.78;2.40;;;;;;;;;;5091290;28;20721;-62
2023/05/21 14:38:21;;;;;;;3.83;2.75;;;;;;;;;;5091266;28;20127;-65
2023/05/21 14:40:46;;;;;;;3.15;2.85;;;;;;;;;;5091045;28;20035;-63
2023/05/21 14:43:11;;;;;;;4.35;3.25;;;;;;;;;;5090148;28;20059;-63
2023/05/21 14:45:37;;;;;;;4.50;3.55;;;;;;;;;;5090556;28;20022;-63